sensor_id;sensor_type;location;lat;lon;timestamp;P1;durP1;ratioP1;P2;durP2;ratioP2
11931;SDS011;6025;51.368;6.788;2022-11-15T00:04:51;9.40;;;6.33;;
11931;SDS011;6025;51.368;6.788;2022-11-15T00:09:42;11.13;;;6.97;;
11931;SDS011;6025;51.368;6.788;2022-11-15T00:14:34;9.60;;;6.53;;
11931;SDS011;6025;51.368;6.788;2022-11-15T00:19:25;8.23;;;6.27;;
11931;SDS011;6025;51.368;6.788;2022-11-15T00:24:18;8.77;;;6.10;;
11931;SDS011;6025;51.368;6.788;2022-11-15T00:29:10;8.83;;;6.40;;
11931;SDS011;6025;51.368;6.788;2022-11-15T00:34:01;8.27;;;5.80;;
11931;SDS011;6025;51.368;6.788;2022-11-15T00:38:52;9.13;;;5.93;;
11931;SDS011;6025;51.368;6.788;2022-11-15T00:43:45;6.57;;;5.88;;
11931;SDS011;6025;51.368;6.788;2022-11-15T00:48:37;9.32;;;6.28;;
11931;SDS011;6025;51.368;6.788;2022-11-15T00:53:28;7.30;;;6.00;;
11931;SDS011;6025;51.368;6.788;2022-11-15T00:58:20;10.05;;;6.25;;
11931;SDS011;6025;51.368;6.788;2022-11-15T01:03:13;13.57;;;6.30;;
11931;SDS011;6025;51.368;6.788;2022-11-15T01:08:04;9.82;;;5.90;;
11931;SDS011;6025;51.368;6.788;2022-11-15T01:12:56;9.38;;;5.70;;
11931;SDS011;6025;51.368;6.788;2022-11-15T01:17:48;10.23;;;5.88;;
11931;SDS011;6025;51.368;6.788;2022-11-15T01:22:41;8.02;;;5.78;;
11931;SDS011;6025;51.368;6.788;2022-11-15T01:27:32;6.53;;;5.63;;
11931;SDS011;6025;51.368;6.788;2022-11-15T01:32:24;8.82;;;5.55;;
11931;SDS011;6025;51.368;6.788;2022-11-15T01:37:15;9.25;;;5.43;;
11931;SDS011;6025;51.368;6.788;2022-11-15T01:42:09;7.05;;;5.32;;
11931;SDS011;6025;51.368;6.788;2022-11-15T01:47:04;5.65;;;5.05;;
11931;SDS011;6025;51.368;6.788;2022-11-15T01:51:58;7.10;;;5.38;;
11931;SDS011;6025;51.368;6.788;2022-11-15T01:56:50;7.13;;;5.20;;
11931;SDS011;6025;51.368;6.788;2022-11-15T02:01:45;6.45;;;4.97;;
11931;SDS011;6025;51.368;6.788;2022-11-15T02:06:40;8.00;;;5.38;;
11931;SDS011;6025;51.368;6.788;2022-11-15T02:11:32;7.65;;;4.60;;
11931;SDS011;6025;51.368;6.788;2022-11-15T02:16:26;7.05;;;5.13;;
11931;SDS011;6025;51.368;6.788;2022-11-15T02:21:26;5.72;;;4.70;;
11931;SDS011;6025;51.368;6.788;2022-11-15T02:26:29;6.45;;;5.05;;
11931;SDS011;6025;51.368;6.788;2022-11-15T02:31:35;7.97;;;5.00;;
11931;SDS011;6025;51.368;6.788;2022-11-15T02:36:33;8.05;;;5.15;;
11931;SDS011;6025;51.368;6.788;2022-11-15T02:41:29;7.20;;;4.53;;
11931;SDS011;6025;51.368;6.788;2022-11-15T02:46:22;7.05;;;4.82;;
11931;SDS011;6025;51.368;6.788;2022-11-15T02:51:37;9.18;;;4.90;;
11931;SDS011;6025;51.368;6.788;2022-11-15T02:56:29;6.03;;;5.00;;
11931;SDS011;6025;51.368;6.788;2022-11-15T03:01:23;8.93;;;5.15;;
11931;SDS011;6025;51.368;6.788;2022-11-15T03:06:23;5.90;;;5.00;;
11931;SDS011;6025;51.368;6.788;2022-11-15T03:11:20;7.60;;;5.00;;
11931;SDS011;6025;51.368;6.788;2022-11-15T03:16:15;7.93;;;5.10;;
11931;SDS011;6025;51.368;6.788;2022-11-15T03:21:08;6.45;;;5.13;;
11931;SDS011;6025;51.368;6.788;2022-11-15T03:26:01;6.75;;;5.47;;
11931;SDS011;6025;51.368;6.788;2022-11-15T03:30:54;6.75;;;5.25;;
11931;SDS011;6025;51.368;6.788;2022-11-15T03:35:46;6.25;;;5.25;;
11931;SDS011;6025;51.368;6.788;2022-11-15T03:40:39;5.90;;;4.82;;
11931;SDS011;6025;51.368;6.788;2022-11-15T03:45:32;7.93;;;5.10;;
11931;SDS011;6025;51.368;6.788;2022-11-15T03:50:28;8.93;;;5.57;;
11931;SDS011;6025;51.368;6.788;2022-11-15T03:55:20;7.95;;;5.10;;
11931;SDS011;6025;51.368;6.788;2022-11-15T04:00:12;7.82;;;4.82;;
11931;SDS011;6025;51.368;6.788;2022-11-15T04:05:04;5.70;;;4.78;;
11931;SDS011;6025;51.368;6.788;2022-11-15T04:09:57;5.13;;;4.35;;
11931;SDS011;6025;51.368;6.788;2022-11-15T04:14:55;6.00;;;4.60;;
11931;SDS011;6025;51.368;6.788;2022-11-15T04:19:57;6.60;;;4.85;;
11931;SDS011;6025;51.368;6.788;2022-11-15T04:25:08;6.88;;;4.60;;
11931;SDS011;6025;51.368;6.788;2022-11-15T04:30:00;6.78;;;4.70;;
11931;SDS011;6025;51.368;6.788;2022-11-15T04:34:51;6.60;;;4.22;;
11931;SDS011;6025;51.368;6.788;2022-11-15T04:39:43;5.10;;;4.20;;
11931;SDS011;6025;51.368;6.788;2022-11-15T04:44:36;5.15;;;4.10;;
11931;SDS011;6025;51.368;6.788;2022-11-15T04:49:27;6.07;;;4.30;;
11931;SDS011;6025;51.368;6.788;2022-11-15T04:54:19;5.40;;;3.92;;
11931;SDS011;6025;51.368;6.788;2022-11-15T04:59:10;6.07;;;4.13;;
11931;SDS011;6025;51.368;6.788;2022-11-15T05:04:03;4.65;;;3.55;;
11931;SDS011;6025;51.368;6.788;2022-11-15T05:09:10;5.03;;;3.72;;
11931;SDS011;6025;51.368;6.788;2022-11-15T05:14:03;4.65;;;4.10;;
11931;SDS011;6025;51.368;6.788;2022-11-15T05:18:54;5.18;;;3.50;;
11931;SDS011;6025;51.368;6.788;2022-11-15T05:23:47;4.97;;;3.83;;
11931;SDS011;6025;51.368;6.788;2022-11-15T05:28:39;5.13;;;3.95;;
11931;SDS011;6025;51.368;6.788;2022-11-15T05:33:30;5.72;;;4.00;;
11931;SDS011;6025;51.368;6.788;2022-11-15T05:38:22;6.00;;;4.00;;
11931;SDS011;6025;51.368;6.788;2022-11-15T05:43:15;5.03;;;4.53;;
11931;SDS011;6025;51.368;6.788;2022-11-15T05:48:07;6.18;;;4.35;;
11931;SDS011;6025;51.368;6.788;2022-11-15T05:53:00;7.60;;;4.45;;
11931;SDS011;6025;51.368;6.788;2022-11-15T05:57:52;6.43;;;4.63;;
11931;SDS011;6025;51.368;6.788;2022-11-15T06:02:45;5.60;;;5.00;;
11931;SDS011;6025;51.368;6.788;2022-11-15T06:07:36;5.00;;;4.28;;
11931;SDS011;6025;51.368;6.788;2022-11-15T06:12:28;6.30;;;4.68;;
11931;SDS011;6025;51.368;6.788;2022-11-15T06:17:19;5.53;;;4.82;;
11931;SDS011;6025;51.368;6.788;2022-11-15T06:22:12;4.85;;;4.30;;
11931;SDS011;6025;51.368;6.788;2022-11-15T06:27:03;6.75;;;4.55;;
11931;SDS011;6025;51.368;6.788;2022-11-15T06:31:55;5.05;;;4.13;;
11931;SDS011;6025;51.368;6.788;2022-11-15T06:36:46;4.72;;;3.90;;
11931;SDS011;6025;51.368;6.788;2022-11-15T06:41:39;6.18;;;4.70;;
11931;SDS011;6025;51.368;6.788;2022-11-15T06:46:31;4.65;;;3.85;;
11931;SDS011;6025;51.368;6.788;2022-11-15T06:51:22;4.30;;;3.90;;
11931;SDS011;6025;51.368;6.788;2022-11-15T06:56:14;5.32;;;4.25;;
11931;SDS011;6025;51.368;6.788;2022-11-15T07:01:07;4.53;;;4.13;;
11931;SDS011;6025;51.368;6.788;2022-11-15T07:06:00;4.35;;;3.95;;
11931;SDS011;6025;51.368;6.788;2022-11-15T07:10:51;3.92;;;3.55;;
11931;SDS011;6025;51.368;6.788;2022-11-15T07:15:43;5.88;;;4.10;;
11931;SDS011;6025;51.368;6.788;2022-11-15T07:20:35;3.97;;;3.58;;
11931;SDS011;6025;51.368;6.788;2022-11-15T07:25:27;3.70;;;3.03;;
11931;SDS011;6025;51.368;6.788;2022-11-15T07:30:18;4.13;;;3.42;;
11931;SDS011;6025;51.368;6.788;2022-11-15T07:35:10;5.28;;;3.20;;
11931;SDS011;6025;51.368;6.788;2022-11-15T07:40:03;3.90;;;3.17;;
11931;SDS011;6025;51.368;6.788;2022-11-15T07:44:55;3.20;;;2.90;;
11931;SDS011;6025;51.368;6.788;2022-11-15T07:49:47;4.50;;;3.30;;
11931;SDS011;6025;51.368;6.788;2022-11-15T07:54:38;5.10;;;2.40;;
11931;SDS011;6025;51.368;6.788;2022-11-15T07:59:31;3.95;;;2.00;;
11931;SDS011;6025;51.368;6.788;2022-11-15T08:04:24;2.45;;;1.95;;
11931;SDS011;6025;51.368;6.788;2022-11-15T08:09:16;1.63;;;1.40;;
11931;SDS011;6025;51.368;6.788;2022-11-15T08:14:07;4.25;;;1.40;;
11931;SDS011;6025;51.368;6.788;2022-11-15T08:19:00;2.03;;;1.77;;
11931;SDS011;6025;51.368;6.788;2022-11-15T08:23:52;5.82;;;2.28;;
11931;SDS011;6025;51.368;6.788;2022-11-15T08:28:43;3.33;;;1.85;;
11931;SDS011;6025;51.368;6.788;2022-11-15T08:33:35;4.40;;;2.10;;
11931;SDS011;6025;51.368;6.788;2022-11-15T08:38:28;2.88;;;2.17;;
11931;SDS011;6025;51.368;6.788;2022-11-15T08:43:20;3.50;;;2.80;;
11931;SDS011;6025;51.368;6.788;2022-11-15T08:48:11;2.70;;;2.50;;
11931;SDS011;6025;51.368;6.788;2022-11-15T08:53:06;3.78;;;2.20;;
11931;SDS011;6025;51.368;6.788;2022-11-15T08:57:59;2.53;;;1.52;;
11931;SDS011;6025;51.368;6.788;2022-11-15T09:02:51;2.85;;;2.08;;
11931;SDS011;6025;51.368;6.788;2022-11-15T09:07:42;2.83;;;2.20;;
11931;SDS011;6025;51.368;6.788;2022-11-15T09:12:34;3.60;;;2.33;;
11931;SDS011;6025;51.368;6.788;2022-11-15T09:17:27;3.47;;;2.50;;
11931;SDS011;6025;51.368;6.788;2022-11-15T09:22:19;2.92;;;2.60;;
11931;SDS011;6025;51.368;6.788;2022-11-15T09:27:10;3.13;;;2.10;;
11931;SDS011;6025;51.368;6.788;2022-11-15T09:32:02;5.85;;;2.20;;
11931;SDS011;6025;51.368;6.788;2022-11-15T09:36:55;2.60;;;1.77;;
11931;SDS011;6025;51.368;6.788;2022-11-15T09:42:05;3.83;;;1.60;;
11931;SDS011;6025;51.368;6.788;2022-11-15T09:47:05;3.45;;;1.40;;
11931;SDS011;6025;51.368;6.788;2022-11-15T09:52:02;3.40;;;1.52;;
11931;SDS011;6025;51.368;6.788;2022-11-15T09:56:55;1.83;;;1.20;;
11931;SDS011;6025;51.368;6.788;2022-11-15T10:01:49;2.72;;;1.20;;
11931;SDS011;6025;51.368;6.788;2022-11-15T10:06:46;1.20;;;1.10;;
11931;SDS011;6025;51.368;6.788;2022-11-15T10:11:44;2.65;;;1.20;;
11931;SDS011;6025;51.368;6.788;2022-11-15T10:16:40;2.50;;;1.33;;
11931;SDS011;6025;51.368;6.788;2022-11-15T10:21:57;3.20;;;1.33;;
11931;SDS011;6025;51.368;6.788;2022-11-15T10:26:56;2.85;;;1.08;;
11931;SDS011;6025;51.368;6.788;2022-11-15T10:31:47;2.35;;;1.13;;
11931;SDS011;6025;51.368;6.788;2022-11-15T10:36:39;2.67;;;1.20;;
11931;SDS011;6025;51.368;6.788;2022-11-15T10:41:36;3.05;;;1.20;;
11931;SDS011;6025;51.368;6.788;2022-11-15T10:46:31;2.35;;;1.00;;
11931;SDS011;6025;51.368;6.788;2022-11-15T10:51:24;1.95;;;1.30;;
11931;SDS011;6025;51.368;6.788;2022-11-15T10:56:18;2.60;;;1.20;;
11931;SDS011;6025;51.368;6.788;2022-11-15T11:01:13;3.17;;;1.15;;
11931;SDS011;6025;51.368;6.788;2022-11-15T11:06:09;2.53;;;1.17;;
11931;SDS011;6025;51.368;6.788;2022-11-15T11:11:02;2.05;;;1.20;;
11931;SDS011;6025;51.368;6.788;2022-11-15T11:15:55;3.60;;;0.90;;
11931;SDS011;6025;51.368;6.788;2022-11-15T11:20:51;1.60;;;1.02;;
11931;SDS011;6025;51.368;6.788;2022-11-15T11:25:50;3.63;;;0.88;;
11931;SDS011;6025;51.368;6.788;2022-11-15T11:30:47;2.80;;;1.00;;
11931;SDS011;6025;51.368;6.788;2022-11-15T11:35:58;2.38;;;1.10;;
11931;SDS011;6025;51.368;6.788;2022-11-15T11:40:59;1.92;;;0.82;;
11931;SDS011;6025;51.368;6.788;2022-11-15T11:46:06;1.73;;;0.90;;
11931;SDS011;6025;51.368;6.788;2022-11-15T11:51:05;3.10;;;0.82;;
11931;SDS011;6025;51.368;6.788;2022-11-15T11:56:07;3.63;;;0.98;;
11931;SDS011;6025;51.368;6.788;2022-11-15T12:01:11;5.15;;;1.23;;
11931;SDS011;6025;51.368;6.788;2022-11-15T12:06:06;2.10;;;0.90;;
11931;SDS011;6025;51.368;6.788;2022-11-15T12:11:12;3.80;;;1.10;;
11931;SDS011;6025;51.368;6.788;2022-11-15T12:16:06;2.10;;;1.02;;
11931;SDS011;6025;51.368;6.788;2022-11-15T12:21:04;3.53;;;1.13;;
11931;SDS011;6025;51.368;6.788;2022-11-15T12:26:00;1.63;;;0.85;;
11931;SDS011;6025;51.368;6.788;2022-11-15T12:30:54;2.45;;;1.10;;
11931;SDS011;6025;51.368;6.788;2022-11-15T12:35:57;2.10;;;1.00;;
11931;SDS011;6025;51.368;6.788;2022-11-15T12:46:05;2.15;;;1.08;;
11931;SDS011;6025;51.368;6.788;2022-11-15T12:51:03;2.47;;;0.82;;
11931;SDS011;6025;51.368;6.788;2022-11-15T13:06:40;2.33;;;0.95;;
11931;SDS011;6025;51.368;6.788;2022-11-15T13:11:49;3.08;;;1.00;;
11931;SDS011;6025;51.368;6.788;2022-11-15T13:16:41;2.08;;;0.95;;
11931;SDS011;6025;51.368;6.788;2022-11-15T13:21:33;4.35;;;0.98;;
11931;SDS011;6025;51.368;6.788;2022-11-15T13:26:43;1.65;;;0.80;;
11931;SDS011;6025;51.368;6.788;2022-11-15T13:31:36;3.30;;;1.00;;
11931;SDS011;6025;51.368;6.788;2022-11-15T13:36:29;3.22;;;1.10;;
11931;SDS011;6025;51.368;6.788;2022-11-15T13:41:23;4.03;;;1.00;;
11931;SDS011;6025;51.368;6.788;2022-11-15T13:46:19;3.00;;;0.82;;
11931;SDS011;6025;51.368;6.788;2022-11-15T13:51:14;2.90;;;1.17;;
11931;SDS011;6025;51.368;6.788;2022-11-15T13:56:11;3.78;;;1.00;;
11931;SDS011;6025;51.368;6.788;2022-11-15T14:01:03;2.25;;;0.90;;
11931;SDS011;6025;51.368;6.788;2022-11-15T14:06:03;4.07;;;1.52;;
11931;SDS011;6025;51.368;6.788;2022-11-15T14:16:15;2.47;;;1.00;;
11931;SDS011;6025;51.368;6.788;2022-11-15T14:21:09;3.38;;;1.20;;
11931;SDS011;6025;51.368;6.788;2022-11-15T14:26:00;2.03;;;0.90;;
11931;SDS011;6025;51.368;6.788;2022-11-15T14:30:53;3.25;;;1.05;;
11931;SDS011;6025;51.368;6.788;2022-11-15T14:35:45;2.58;;;1.10;;
11931;SDS011;6025;51.368;6.788;2022-11-15T14:40:38;3.83;;;1.00;;
11931;SDS011;6025;51.368;6.788;2022-11-15T14:45:34;3.58;;;1.20;;
11931;SDS011;6025;51.368;6.788;2022-11-15T14:50:26;1.15;;;0.75;;
11931;SDS011;6025;51.368;6.788;2022-11-15T14:55:18;3.00;;;1.00;;
11931;SDS011;6025;51.368;6.788;2022-11-15T15:00:13;2.17;;;1.20;;
11931;SDS011;6025;51.368;6.788;2022-11-15T15:05:11;1.20;;;1.02;;
11931;SDS011;6025;51.368;6.788;2022-11-15T15:10:05;1.80;;;1.27;;
11931;SDS011;6025;51.368;6.788;2022-11-15T15:14:57;4.00;;;1.60;;
11931;SDS011;6025;51.368;6.788;2022-11-15T15:19:49;2.78;;;1.48;;
11931;SDS011;6025;51.368;6.788;2022-11-15T15:24:41;5.90;;;1.80;;
11931;SDS011;6025;51.368;6.788;2022-11-15T15:29:32;4.30;;;1.95;;
11931;SDS011;6025;51.368;6.788;2022-11-15T15:34:24;3.72;;;1.58;;
11931;SDS011;6025;51.368;6.788;2022-11-15T15:39:17;2.47;;;1.73;;
11931;SDS011;6025;51.368;6.788;2022-11-15T15:44:08;2.95;;;1.33;;
11931;SDS011;6025;51.368;6.788;2022-11-15T15:49:00;3.20;;;1.60;;
11931;SDS011;6025;51.368;6.788;2022-11-15T15:53:51;3.60;;;1.70;;
11931;SDS011;6025;51.368;6.788;2022-11-15T15:58:48;1.83;;;1.60;;
11931;SDS011;6025;51.368;6.788;2022-11-15T16:03:39;3.60;;;1.70;;
11931;SDS011;6025;51.368;6.788;2022-11-15T16:08:31;1.98;;;1.40;;
11931;SDS011;6025;51.368;6.788;2022-11-15T16:13:22;3.38;;;1.50;;
11931;SDS011;6025;51.368;6.788;2022-11-15T16:18:16;2.67;;;1.38;;
11931;SDS011;6025;51.368;6.788;2022-11-15T16:23:08;2.28;;;1.30;;
11931;SDS011;6025;51.368;6.788;2022-11-15T16:28:01;2.55;;;1.58;;
11931;SDS011;6025;51.368;6.788;2022-11-15T16:32:52;3.42;;;1.30;;
11931;SDS011;6025;51.368;6.788;2022-11-15T16:37:45;1.77;;;1.58;;
11931;SDS011;6025;51.368;6.788;2022-11-15T16:42:37;3.72;;;1.40;;
11931;SDS011;6025;51.368;6.788;2022-11-15T16:47:28;2.55;;;1.42;;
11931;SDS011;6025;51.368;6.788;2022-11-15T16:52:20;2.60;;;1.40;;
11931;SDS011;6025;51.368;6.788;2022-11-15T16:57:13;2.33;;;1.42;;
11931;SDS011;6025;51.368;6.788;2022-11-15T17:02:08;1.85;;;1.58;;
11931;SDS011;6025;51.368;6.788;2022-11-15T17:07:02;2.17;;;1.30;;
11931;SDS011;6025;51.368;6.788;2022-11-15T17:11:53;1.63;;;1.40;;
11931;SDS011;6025;51.368;6.788;2022-11-15T17:16:46;2.28;;;1.33;;
11931;SDS011;6025;51.368;6.788;2022-11-15T17:21:38;2.40;;;1.58;;
11931;SDS011;6025;51.368;6.788;2022-11-15T17:26:29;3.80;;;1.60;;
11931;SDS011;6025;51.368;6.788;2022-11-15T17:31:21;1.63;;;1.40;;
11931;SDS011;6025;51.368;6.788;2022-11-15T17:36:13;3.35;;;1.80;;
11931;SDS011;6025;51.368;6.788;2022-11-15T17:41:06;2.45;;;1.45;;
11931;SDS011;6025;51.368;6.788;2022-11-15T17:46:03;3.17;;;1.40;;
11931;SDS011;6025;51.368;6.788;2022-11-15T17:50:56;3.83;;;1.50;;
11931;SDS011;6025;51.368;6.788;2022-11-15T17:55:50;1.95;;;1.35;;
11931;SDS011;6025;51.368;6.788;2022-11-15T18:00:41;6.57;;;1.45;;
11931;SDS011;6025;51.368;6.788;2022-11-15T18:05:33;3.53;;;1.40;;
11931;SDS011;6025;51.368;6.788;2022-11-15T18:10:24;2.03;;;1.50;;
11931;SDS011;6025;51.368;6.788;2022-11-15T18:15:17;1.77;;;1.48;;
11931;SDS011;6025;51.368;6.788;2022-11-15T18:20:10;3.47;;;1.60;;
11931;SDS011;6025;51.368;6.788;2022-11-15T18:25:02;3.10;;;1.55;;
11931;SDS011;6025;51.368;6.788;2022-11-15T18:29:54;2.38;;;1.67;;
11931;SDS011;6025;51.368;6.788;2022-11-15T18:34:47;2.63;;;1.80;;
11931;SDS011;6025;51.368;6.788;2022-11-15T18:39:38;3.92;;;1.90;;
11931;SDS011;6025;51.368;6.788;2022-11-15T18:44:30;2.47;;;1.75;;
11931;SDS011;6025;51.368;6.788;2022-11-15T18:49:22;1.63;;;1.48;;
11931;SDS011;6025;51.368;6.788;2022-11-15T18:54:15;2.70;;;1.90;;
11931;SDS011;6025;51.368;6.788;2022-11-15T18:59:07;2.25;;;2.00;;
11931;SDS011;6025;51.368;6.788;2022-11-15T19:04:01;3.08;;;2.13;;
11931;SDS011;6025;51.368;6.788;2022-11-15T19:08:54;2.42;;;1.92;;
11931;SDS011;6025;51.368;6.788;2022-11-15T19:13:51;4.13;;;2.03;;
11931;SDS011;6025;51.368;6.788;2022-11-15T19:18:43;3.20;;;2.53;;
11931;SDS011;6025;51.368;6.788;2022-11-15T19:23:35;2.40;;;2.08;;
11931;SDS011;6025;51.368;6.788;2022-11-15T19:28:27;2.78;;;2.40;;
11931;SDS011;6025;51.368;6.788;2022-11-15T19:33:21;3.15;;;2.50;;
11931;SDS011;6025;51.368;6.788;2022-11-15T19:38:12;4.65;;;2.67;;
11931;SDS011;6025;51.368;6.788;2022-11-15T19:43:04;3.50;;;2.70;;
11931;SDS011;6025;51.368;6.788;2022-11-15T19:47:56;4.47;;;2.92;;
11931;SDS011;6025;51.368;6.788;2022-11-15T19:52:49;3.30;;;2.70;;
11931;SDS011;6025;51.368;6.788;2022-11-15T19:57:41;3.30;;;2.90;;
11931;SDS011;6025;51.368;6.788;2022-11-15T20:02:32;3.97;;;3.08;;
11931;SDS011;6025;51.368;6.788;2022-11-15T20:07:24;5.78;;;3.55;;
11931;SDS011;6025;51.368;6.788;2022-11-15T20:12:17;4.63;;;3.42;;
11931;SDS011;6025;51.368;6.788;2022-11-15T20:17:08;4.40;;;3.05;;
11931;SDS011;6025;51.368;6.788;2022-11-15T20:22:00;4.32;;;3.08;;
11931;SDS011;6025;51.368;6.788;2022-11-15T20:26:51;8.02;;;4.65;;
11931;SDS011;6025;51.368;6.788;2022-11-15T20:31:44;4.00;;;3.20;;
11931;SDS011;6025;51.368;6.788;2022-11-15T20:36:36;3.65;;;3.10;;
11931;SDS011;6025;51.368;6.788;2022-11-15T20:41:27;4.40;;;3.20;;
11931;SDS011;6025;51.368;6.788;2022-11-15T20:46:19;4.78;;;2.90;;
11931;SDS011;6025;51.368;6.788;2022-11-15T20:51:13;3.33;;;2.85;;
11931;SDS011;6025;51.368;6.788;2022-11-15T20:56:08;3.38;;;3.08;;
11931;SDS011;6025;51.368;6.788;2022-11-15T21:01:01;4.55;;;3.20;;
11931;SDS011;6025;51.368;6.788;2022-11-15T21:05:53;3.55;;;3.10;;
11931;SDS011;6025;51.368;6.788;2022-11-15T21:10:47;3.95;;;3.50;;
11931;SDS011;6025;51.368;6.788;2022-11-15T21:15:56;4.63;;;3.20;;
11931;SDS011;6025;51.368;6.788;2022-11-15T21:20:48;3.80;;;3.40;;
11931;SDS011;6025;51.368;6.788;2022-11-15T21:25:39;3.40;;;3.10;;
11931;SDS011;6025;51.368;6.788;2022-11-15T21:30:32;4.55;;;3.40;;
11931;SDS011;6025;51.368;6.788;2022-11-15T21:35:24;5.90;;;3.47;;
11931;SDS011;6025;51.368;6.788;2022-11-15T21:40:15;3.90;;;3.50;;
11931;SDS011;6025;51.368;6.788;2022-11-15T21:45:07;3.33;;;3.03;;
11931;SDS011;6025;51.368;6.788;2022-11-15T21:50:01;5.13;;;3.63;;
11931;SDS011;6025;51.368;6.788;2022-11-15T21:54:52;4.22;;;3.70;;
11931;SDS011;6025;51.368;6.788;2022-11-15T21:59:44;3.70;;;3.33;;
11931;SDS011;6025;51.368;6.788;2022-11-15T22:04:53;4.43;;;3.50;;
11931;SDS011;6025;51.368;6.788;2022-11-15T22:09:45;4.78;;;3.72;;
11931;SDS011;6025;51.368;6.788;2022-11-15T22:14:37;4.53;;;3.40;;
11931;SDS011;6025;51.368;6.788;2022-11-15T22:19:28;4.10;;;3.42;;
11931;SDS011;6025;51.368;6.788;2022-11-15T22:24:20;4.97;;;3.47;;
11931;SDS011;6025;51.368;6.788;2022-11-15T22:29:13;4.75;;;3.53;;
11931;SDS011;6025;51.368;6.788;2022-11-15T22:34:05;4.38;;;3.45;;
11931;SDS011;6025;51.368;6.788;2022-11-15T22:38:57;5.65;;;3.50;;
11931;SDS011;6025;51.368;6.788;2022-11-15T22:43:48;3.95;;;3.33;;
11931;SDS011;6025;51.368;6.788;2022-11-15T22:48:41;3.53;;;3.10;;
11931;SDS011;6025;51.368;6.788;2022-11-15T22:53:33;4.63;;;3.40;;
11931;SDS011;6025;51.368;6.788;2022-11-15T22:58:28;4.68;;;3.53;;
11931;SDS011;6025;51.368;6.788;2022-11-15T23:03:20;4.40;;;3.38;;
11931;SDS011;6025;51.368;6.788;2022-11-15T23:08:14;4.78;;;3.30;;
11931;SDS011;6025;51.368;6.788;2022-11-15T23:13:08;3.80;;;3.42;;
11931;SDS011;6025;51.368;6.788;2022-11-15T23:18:06;3.35;;;3.03;;
11931;SDS011;6025;51.368;6.788;2022-11-15T23:22:58;3.88;;;3.33;;
11931;SDS011;6025;51.368;6.788;2022-11-15T23:27:51;3.83;;;3.38;;
11931;SDS011;6025;51.368;6.788;2022-11-15T23:32:42;3.58;;;3.28;;
11931;SDS011;6025;51.368;6.788;2022-11-15T23:37:51;5.05;;;3.53;;
11931;SDS011;6025;51.368;6.788;2022-11-15T23:42:43;5.38;;;3.05;;
11931;SDS011;6025;51.368;6.788;2022-11-15T23:47:36;6.35;;;3.60;;
11931;SDS011;6025;51.368;6.788;2022-11-15T23:52:27;4.20;;;3.60;;
11931;SDS011;6025;51.368;6.788;2022-11-15T23:57:19;4.82;;;3.67;;
